KARA/ARA METAR and TAF weather

Enter ICAO airport designator
Station Type Date Time Source
KARA METAR 2019/02/23 02:53 UTC NOAA

KARA 230253Z AUTO 17015G21KT 10SM SCT008 OVC018 23/22 A2998 RMK AO2 SLP150 T02280217 53004


Station Type Date Time Source
KARA Decoded METAR 2019/02/23 02:53 UTC NOAA

NEW IBERIA ACADIANA REGIONAL, LA, United States (KARA) 30-02N 091-53W 18M
Feb 22, 2019 - 09:53 PM EST / 2019.02.23 0253 UTC
Wind: from the S (170 degrees) at 17 MPH (15 KT) gusting to 24 MPH (21 KT):0
Visibility: 10 mile(s):0
Sky conditions: overcast
Temperature: 73.0 F (22.8 C)
Dew Point: 71.1 F (21.7 C)
Relative Humidity: 93%
Pressure (altimeter): 29.98 in. Hg (1015 hPa)
Pressure tendency: 0.01 inches (0.4 hPa) higher than three hours ago
ob: KARA 230253Z AUTO 17015G21KT 10SM SCT008 OVC018 23/22 A2998 RMK AO2 SLP150 T02280217 53004
cycle: 3

Station Type Date Time Source
KARA TAF 2019/02/23 03:59 UTC NOAA

TAF
AMD KARA 230253Z 2303/2324 16012KT 6SM BR VCSH BKN007 OVC015
FM230600 18007KT 3SM BR VCSH OVC003
FM230800 18005KT 1/2SM FG VCSH OVC003
FM231500 19016G25KT 5SM BR VCSH OVC007
TEMPO 2320/2324 22019G32KT 2SM -TSRA OVC005CB


Example: see airport list